Time;durP1;ratioP1;P1;durP2;ratioP2;P2;SDS_P1;SDS_P2;PMS_P1;PMS_P2;Temp;Humidity;BMP_temperature;BMP_pressure;BME280_temperature;BME280_humidity;BME280_pressure;Samples;Min_cycle;Max_cycle;Signal;HPM_P1;HPM_P2
2022/11/04 00:00:04;;;;;;;4.43;3.80;;;10.50;99.90;;;;;;5077582;28;20447;-80
2022/11/04 00:02:31;;;;;;;4.50;4.13;;;10.40;99.90;;;;;;5064885;28;20666;-80
2022/11/04 00:04:58;;;;;;;6.20;5.20;;;10.30;99.90;;;;;;5072863;28;20506;-80
2022/11/04 00:10:10;;;;;;;8.40;4.23;;;10.30;99.90;;;;;;5068389;28;20604;-81
2022/11/04 00:12:36;;;;;;;7.20;4.27;;;10.30;99.90;;;;;;5064244;28;20887;-81
2022/11/04 00:17:44;;;;;;;8.53;4.50;;;10.30;99.90;;;;;;5066217;28;20464;-81
2022/11/04 00:28:43;;;;;;;5.60;5.10;;;10.50;99.90;;;;;;5069497;28;21037;-81
2022/11/04 00:33:57;;;;;;;4.47;4.07;;;10.50;99.90;;;;;;5079341;28;20470;-81
2022/11/04 00:36:25;;;;;;;4.10;3.67;;;10.30;99.90;;;;;;5075730;28;20526;-81
2022/11/04 00:38:53;;;;;;;7.30;5.53;;;10.30;99.90;;;;;;5086072;28;20474;-81
2022/11/04 00:41:26;;;;;;;5.20;4.00;;;10.30;99.90;;;;;;5083225;28;20458;-81
2022/11/04 00:43:53;;;;;;;5.03;4.60;;;10.30;99.90;;;;;;5076970;28;20462;-81
2022/11/04 00:46:21;;;;;;;7.73;4.30;;;10.30;99.90;;;;;;5074295;28;20537;-81
2022/11/04 00:48:48;;;;;;;5.90;5.40;;;10.30;99.90;;;;;;5083657;28;20458;-80
2022/11/04 00:51:15;;;;;;;8.83;5.27;;;10.40;99.90;;;;;;5081865;28;20543;-80
2022/11/04 00:53:42;;;;;;;8.47;4.80;;;10.40;99.90;;;;;;5080274;28;20467;-81
2022/11/04 00:56:10;;;;;;;7.33;5.13;;;10.50;99.90;;;;;;5082927;28;20978;-81
2022/11/04 00:58:37;;;;;;;5.80;5.20;;;10.50;99.90;;;;;;5075347;28;20512;-81
2022/11/04 01:01:08;;;;;;;5.53;4.77;;;10.50;99.90;;;;;;5076875;28;20512;-81
2022/11/04 01:03:35;;;;;;;6.77;4.90;;;10.60;99.90;;;;;;5079842;28;20474;-81
2022/11/04 01:06:02;;;;;;;5.07;4.50;;;10.60;99.90;;;;;;5084692;28;20575;-81
2022/11/04 01:08:29;;;;;;;4.80;4.37;;;10.50;99.90;;;;;;5080747;28;20483;-81
2022/11/04 01:10:55;;;;;;;5.20;4.63;;;10.50;99.90;;;;;;5070354;28;20483;-81
2022/11/04 01:13:24;;;;;;;8.40;4.77;;;10.50;99.90;;;;;;5078080;28;20447;-80
2022/11/04 01:15:51;;;;;;;5.03;4.53;;;10.50;99.90;;;;;;5079006;28;20487;-81
2022/11/04 01:18:18;;;;;;;5.67;5.07;;;10.50;99.90;;;;;;5078034;28;20999;-81
2022/11/04 01:20:44;;;;;;;4.73;4.33;;;10.60;99.90;;;;;;5082024;28;20536;-81
2022/11/04 01:23:11;;;;;;;11.03;5.10;;;10.70;99.90;;;;;;5077790;28;20456;-81
2022/11/04 01:25:40;;;;;;;5.23;4.73;;;10.80;99.90;;;;;;5081791;28;20475;-81
2022/11/04 01:28:07;;;;;;;5.93;5.37;;;10.80;99.90;;;;;;5070766;28;21029;-81
2022/11/04 01:30:37;;;;;;;8.33;4.73;;;10.80;99.90;;;;;;5082318;28;20954;-81
2022/11/04 01:33:04;;;;;;;4.97;4.53;;;10.80;99.90;;;;;;5084640;28;21031;-80
2022/11/04 01:35:31;;;;;;;7.47;5.60;;;10.80;99.90;;;;;;5073238;28;20934;-81
2022/11/04 01:37:59;;;;;;;6.90;4.43;;;10.70;99.90;;;;;;5084345;28;20490;-81
2022/11/04 01:40:26;;;;;;;5.70;5.20;;;10.70;99.90;;;;;;5083394;28;20447;-81
2022/11/04 01:42:53;;;;;;;5.73;5.23;;;10.70;99.90;;;;;;5073942;28;20548;-81
2022/11/04 01:45:22;;;;;;;5.63;5.20;;;10.60;99.90;;;;;;5067683;28;20962;-81
2022/11/04 01:47:56;;;;;;;5.43;4.50;;;10.60;99.90;;;;;;5063349;28;20453;-81
2022/11/04 01:50:26;;;;;;;8.33;4.93;;;10.70;99.90;;;;;;5073607;28;20525;-81
2022/11/04 01:52:58;;;;;;;6.30;4.50;;;10.70;99.90;;;;;;5070667;28;20458;-81
2022/11/04 01:55:30;;;;;;;7.20;5.70;;;10.70;99.90;;;;;;5063602;28;20486;-81
2022/11/04 01:58:01;;;;;;;6.13;5.20;;;10.60;99.90;;;;;;5067242;28;20451;-81
2022/11/04 02:00:28;;;;;;;5.80;5.07;;;10.60;99.90;;;;;;5066741;28;20474;-80
2022/11/04 02:03:00;;;;;;;5.97;5.27;;;10.60;99.90;;;;;;5076294;28;21150;-81
2022/11/04 02:05:29;;;;;;;6.30;5.70;;;10.60;99.90;;;;;;5065881;28;20869;-81
2022/11/04 02:07:58;;;;;;;15.97;5.10;;;10.60;99.90;;;;;;5068642;28;20498;-81
2022/11/04 02:10:27;;;;;;;6.40;5.80;;;10.60;99.90;;;;;;5063783;28;20548;-81
2022/11/04 02:12:54;;;;;;;6.93;6.00;;;10.50;99.90;;;;;;5073938;28;20502;-80
2022/11/04 02:15:29;;;;;;;4.97;4.47;;;10.40;99.90;;;;;;5066523;28;20494;-81
2022/11/04 02:18:35;;;;;;;8.50;6.50;;;10.20;99.90;;;;;;5070534;28;20560;-81
2022/11/04 02:21:44;;;;;;;15.67;7.23;;;10.20;99.90;;;;;;5057402;28;20479;-81
2022/11/04 02:24:41;;;;;;;5.53;4.90;;;10.20;99.90;;;;;;5065878;28;20540;-81
2022/11/04 02:27:20;;;;;;;6.93;5.40;;;10.00;99.90;;;;;;5072636;28;21053;-80
2022/11/04 02:30:08;;;;;;;6.70;6.10;;;10.00;99.90;;;;;;5073085;28;20459;-80
2022/11/04 02:32:55;;;;;;;6.90;5.63;;;10.00;99.90;;;;;;5073872;28;20930;-80
2022/11/04 02:35:29;;;;;;;6.83;6.20;;;10.10;99.90;;;;;;5069511;28;20473;-80
2022/11/04 02:38:05;;;;;;;8.57;6.10;;;10.10;99.90;;;;;;5061706;28;21063;-80
2022/11/04 02:40:41;;;;;;;7.13;6.43;;;10.00;99.90;;;;;;5062132;28;20907;-80
2022/11/04 02:43:17;;;;;;;7.40;6.60;;;10.00;99.90;;;;;;5073246;28;20478;-80
2022/11/04 02:45:49;;;;;;;9.63;7.30;;;10.10;99.90;;;;;;5061597;28;21339;-81
2022/11/04 02:48:24;;;;;;;7.87;6.60;;;10.20;99.90;;;;;;5063306;28;20465;-80
2022/11/04 02:50:56;;;;;;;7.23;5.53;;;10.30;99.90;;;;;;5070819;28;20494;-80
2022/11/04 02:53:27;;;;;;;8.53;5.70;;;10.30;99.90;;;;;;5064459;28;20548;-80
2022/11/04 02:55:57;;;;;;;6.63;5.87;;;10.50;99.90;;;;;;5071897;28;20459;-80
2022/11/04 02:58:30;;;;;;;10.97;7.03;;;10.60;99.90;;;;;;5070751;28;20904;-80
2022/11/04 03:01:01;;;;;;;9.57;6.17;;;10.60;99.90;;;;;;5077090;28;20916;-80
2022/11/04 03:03:33;;;;;;;7.53;5.63;;;10.70;99.90;;;;;;5074446;28;20490;-80
2022/11/04 03:06:02;;;;;;;7.63;6.50;;;10.70;99.90;;;;;;5085673;28;20486;-80
2022/11/04 03:08:33;;;;;;;6.30;5.70;;;10.60;99.90;;;;;;5079251;28;20488;-80
2022/11/04 03:11:04;;;;;;;7.67;6.37;;;10.60;99.90;;;;;;5083930;28;20470;-80
2022/11/04 03:13:37;;;;;;;6.23;5.63;;;10.60;99.90;;;;;;5074137;28;20564;-80
2022/11/04 03:16:10;;;;;;;7.03;6.33;;;10.50;99.90;;;;;;5082909;28;20462;-79
2022/11/04 03:18:46;;;;;;;6.80;6.20;;;10.50;99.90;;;;;;5077450;28;20462;-80
2022/11/04 03:21:15;;;;;;;7.23;6.50;;;10.50;99.90;;;;;;5075290;28;21007;-80
2022/11/04 03:23:42;;;;;;;7.67;6.90;;;10.50;99.90;;;;;;5080639;28;20487;-79
2022/11/04 03:26:12;;;;;;;7.60;5.90;;;10.50;99.90;;;;;;5077882;28;20520;-79
2022/11/04 03:28:46;;;;;;;7.77;6.23;;;10.50;99.90;;;;;;5076762;28;20493;-80
2022/11/04 03:31:22;;;;;;;9.13;6.60;;;10.50;99.90;;;;;;5075148;28;20867;-79
2022/11/04 03:33:51;;;;;;;7.13;6.50;;;10.50;99.90;;;;;;5084688;28;20894;-79
2022/11/04 03:36:20;;;;;;;7.50;5.93;;;10.50;99.90;;;;;;5083631;28;20574;-79
2022/11/04 03:38:47;;;;;;;6.93;6.23;;;10.50;99.90;;;;;;5082123;28;20524;-79
2022/11/04 03:41:19;;;;;;;6.27;5.67;;;10.50;99.90;;;;;;5077864;28;20538;-79
2022/11/04 03:43:46;;;;;;;7.90;5.40;;;10.50;99.90;;;;;;5075160;28;20539;-79
2022/11/04 03:46:15;;;;;;;6.97;5.70;;;10.50;99.90;;;;;;5085123;28;20514;-79
2022/11/04 03:48:45;;;;;;;11.40;5.83;;;10.50;99.90;;;;;;5082302;28;20540;-79
2022/11/04 03:51:12;;;;;;;6.57;5.33;;;10.50;99.90;;;;;;5080966;28;20463;-79
2022/11/04 03:53:39;;;;;;;6.67;5.73;;;10.40;99.90;;;;;;5070188;28;20861;-80
2022/11/04 03:56:37;;;;;;;6.40;5.10;;;10.40;99.90;;;;;;5070614;28;20455;-79
2022/11/04 03:59:19;;;;;;;6.57;5.93;;;10.40;99.90;;;;;;5070368;28;20991;-79
2022/11/04 04:01:52;;;;;;;10.53;5.27;;;10.40;99.90;;;;;;5068863;28;20483;-79
2022/11/04 04:04:27;;;;;;;7.20;6.37;;;10.40;99.90;;;;;;5075928;28;20543;-79
2022/11/04 04:06:59;;;;;;;7.17;6.47;;;10.30;99.90;;;;;;5075595;28;20454;-79
2022/11/04 04:09:32;;;;;;;8.40;6.63;;;10.40;99.90;;;;;;5075841;28;20458;-79
2022/11/04 04:12:05;;;;;;;5.93;5.20;;;10.40;99.90;;;;;;5071565;28;20892;-79
2022/11/04 04:14:39;;;;;;;6.93;6.33;;;10.30;99.90;;;;;;5066997;28;20460;-79
2022/11/04 04:17:13;;;;;;;10.23;7.67;;;10.30;99.90;;;;;;5075971;28;20478;-79
2022/11/04 04:19:44;;;;;;;6.67;5.93;;;10.40;99.90;;;;;;5080764;28;20493;-79
2022/11/04 04:22:17;;;;;;;8.37;6.53;;;10.40;99.90;;;;;;5076964;28;20491;-79
2022/11/04 04:27:35;;;;;;;10.73;7.87;;;10.30;99.90;;;;;;5079751;28;20489;-79
2022/11/04 04:30:05;;;;;;;7.20;6.53;;;10.30;99.90;;;;;;5080090;28;21135;-79
2022/11/04 04:32:38;;;;;;;7.10;5.60;;;10.40;99.90;;;;;;5069575;28;20459;-79
2022/11/04 04:37:53;;;;;;;10.57;6.53;;;10.30;99.90;;;;;;5082641;28;20539;-79
2022/11/04 04:46:00;;;;;;;6.73;4.60;;;10.20;99.90;;;;;;5071989;28;20441;-79
2022/11/04 04:48:29;;;;;;;4.70;4.30;;;10.20;99.90;;;;;;5078608;28;20459;-79
2022/11/04 04:51:00;;;;;;;7.90;5.60;;;10.20;99.90;;;;;;5084845;28;20473;-79
2022/11/04 04:53:27;;;;;;;3.83;3.53;;;10.10;99.90;;;;;;5075412;28;20452;-79
2022/11/04 04:55:55;;;;;;;5.33;3.40;;;10.10;99.90;;;;;;5075640;28;20528;-79
2022/11/04 04:58:21;;;;;;;3.93;2.80;;;10.10;99.90;;;;;;5066703;28;20486;-79
2022/11/04 05:00:48;;;;;;;4.23;3.00;;;10.00;99.90;;;;;;5063668;28;20521;-79
2022/11/04 05:03:15;;;;;;;2.93;2.70;;;10.00;99.90;;;;;;5067693;28;20456;-81
2022/11/04 05:05:44;;;;;;;3.93;3.50;;;10.00;99.90;;;;;;5068868;28;20486;-80
2022/11/04 05:08:11;;;;;;;2.90;2.70;;;9.90;99.90;;;;;;5072930;28;21031;-79
2022/11/04 05:10:37;;;;;;;2.83;2.37;;;9.90;99.90;;;;;;5071433;28;20455;-79
2022/11/04 05:15:49;;;;;;;1.77;1.63;;;9.90;99.90;;;;;;5070509;28;20462;-79
2022/11/04 05:18:15;;;;;;;7.87;2.67;;;9.90;99.90;;;;;;5082839;28;20483;-79
2022/11/04 05:20:44;;;;;;;2.10;1.93;;;9.90;99.90;;;;;;5068553;28;20447;-79
2022/11/04 05:23:12;;;;;;;2.73;2.27;;;9.80;99.90;;;;;;5070288;28;20494;-79
2022/11/04 05:25:39;;;;;;;2.50;1.80;;;9.80;99.90;;;;;;5073085;28;20435;-80
2022/11/04 05:28:07;;;;;;;3.87;2.17;;;9.80;99.90;;;;;;5077782;28;20483;-79
2022/11/04 05:30:34;;;;;;;6.33;4.90;;;9.80;99.90;;;;;;5084044;28;20494;-80
2022/11/04 05:33:01;;;;;;;5.97;5.00;;;9.80;99.90;;;;;;5088778;28;20473;-80
2022/11/04 05:35:28;;;;;;;5.80;5.23;;;9.80;99.90;;;;;;5069654;28;20464;-80
2022/11/04 05:37:57;;;;;;;12.83;10.67;;;9.80;99.90;;;;;;5074309;28;20481;-80
2022/11/04 05:40:24;;;;;;;28.13;19.00;;;9.80;99.90;;;;;;5071692;28;20490;-80
2022/11/04 05:42:51;;;;;;;23.57;18.90;;;9.80;99.90;;;;;;5074849;28;20451;-79
2022/11/04 05:45:19;;;;;;;17.50;14.00;;;9.80;99.90;;;;;;5078198;28;20548;-80
2022/11/04 05:47:45;;;;;;;10.53;8.80;;;9.70;99.90;;;;;;5075085;28;20493;-80
2022/11/04 05:50:12;;;;;;;21.93;15.90;;;9.80;99.90;;;;;;5073915;28;20474;-80
2022/11/04 05:52:39;;;;;;;5.73;4.47;;;9.70;99.90;;;;;;5065298;28;20519;-80
2022/11/04 05:55:08;;;;;;;13.20;11.37;;;9.70;99.90;;;;;;5069087;28;20456;-79
2022/11/04 05:57:37;;;;;;;4.73;3.80;;;9.70;99.90;;;;;;5070242;28;20482;-80
2022/11/04 06:00:04;;;;;;;5.57;5.27;;;9.70;99.90;;;;;;5072077;28;20481;-79
2022/11/04 06:02:31;;;;;;;3.87;3.57;;;9.70;99.90;;;;;;5065036;28;20497;-79
2022/11/04 06:04:58;;;;;;;4.13;3.87;;;9.60;99.90;;;;;;5073851;28;20862;-79
2022/11/04 06:07:25;;;;;;;5.90;5.50;;;9.60;99.90;;;;;;5065421;28;20918;-80
2022/11/04 06:09:52;;;;;;;1.70;1.60;;;9.60;99.90;;;;;;5073099;28;20470;-79
2022/11/04 06:12:21;;;;;;;10.53;9.63;;;9.50;99.90;;;;;;5074089;28;20464;-80
2022/11/04 06:14:48;;;;;;;2.00;1.87;;;9.60;99.90;;;;;;5083004;28;20454;-80
2022/11/04 06:17:16;;;;;;;4.33;4.00;;;9.60;99.90;;;;;;5079069;28;20486;-80
2022/11/04 06:19:43;;;;;;;3.50;2.77;;;9.50;99.90;;;;;;5074446;28;20447;-80
2022/11/04 06:22:11;;;;;;;3.23;2.83;;;9.50;99.90;;;;;;5070795;28;20502;-80
2022/11/04 06:24:38;;;;;;;5.23;4.73;;;9.50;99.90;;;;;;5077353;28;20472;-80
2022/11/04 06:27:05;;;;;;;6.43;5.83;;;9.50;99.90;;;;;;5064534;28;20460;-80
2022/11/04 06:29:35;;;;;;;3.53;3.30;;;9.50;99.90;;;;;;5075361;28;20913;-80
2022/11/04 06:32:02;;;;;;;1.77;1.67;;;9.50;99.90;;;;;;5068663;28;20521;-80
2022/11/04 06:34:29;;;;;;;5.30;5.00;;;9.50;99.90;;;;;;5065796;28;20591;-81
2022/11/04 06:36:56;;;;;;;3.07;2.60;;;9.50;99.90;;;;;;5068851;28;20516;-81
2022/11/04 06:39:23;;;;;;;3.77;3.57;;;9.40;99.90;;;;;;5067913;28;20459;-81
2022/11/04 06:41:50;;;;;;;3.33;1.43;;;9.40;99.90;;;;;;5067727;28;20497;-80
2022/11/04 06:44:16;;;;;;;0.77;0.77;;;9.50;99.90;;;;;;5079543;28;20904;-80
2022/11/04 06:46:45;;;;;;;0.97;0.90;;;9.50;99.90;;;;;;5072958;28;21178;-80
2022/11/04 06:49:14;;;;;;;0.83;0.80;;;9.50;99.90;;;;;;5075241;28;20961;-80
2022/11/04 06:51:41;;;;;;;0.43;0.40;;;9.40;99.90;;;;;;5070308;28;20439;-80
2022/11/04 06:54:08;;;;;;;1.13;0.67;;;9.40;99.90;;;;;;5072941;28;21040;-80
2022/11/04 06:56:36;;;;;;;0.53;0.50;;;9.40;99.90;;;;;;5074533;28;20859;-80
2022/11/04 06:59:03;;;;;;;1.40;0.60;;;9.40;99.90;;;;;;5070019;28;20540;-80
2022/11/04 07:01:33;;;;;;;0.70;0.50;;;9.40;99.90;;;;;;5071153;28;21040;-80
2022/11/04 07:04:04;;;;;;;1.23;0.70;;;9.30;99.90;;;;;;5067386;28;20467;-80
2022/11/04 07:06:31;;;;;;;0.60;0.50;;;9.40;99.90;;;;;;5069101;28;20548;-80
2022/11/04 07:09:01;;;;;;;1.07;0.60;;;9.40;99.90;;;;;;5069183;28;20482;-80
2022/11/04 07:11:29;;;;;;;0.60;0.50;;;9.40;99.90;;;;;;5067084;28;20489;-80
2022/11/04 07:13:57;;;;;;;1.00;0.60;;;9.40;99.90;;;;;;5067180;28;20450;-80
2022/11/04 07:16:24;;;;;;;0.90;0.60;;;9.40;99.90;;;;;;5067299;28;20561;-80
2022/11/04 07:18:51;;;;;;;1.57;0.50;;;9.40;99.90;;;;;;5063139;28;21119;-80
2022/11/04 07:21:19;;;;;;;0.83;0.60;;;9.40;99.90;;;;;;5065116;28;20518;-80
2022/11/04 07:23:46;;;;;;;0.80;0.57;;;9.40;99.90;;;;;;5068768;28;20575;-80
2022/11/04 07:26:14;;;;;;;0.70;0.60;;;9.40;99.90;;;;;;5072365;28;20462;-80
2022/11/04 07:28:40;;;;;;;1.20;0.73;;;9.30;99.90;;;;;;5067553;28;20486;-80
2022/11/04 07:31:08;;;;;;;1.60;0.50;;;9.30;99.90;;;;;;5066608;28;20544;-80
2022/11/04 07:33:38;;;;;;;0.87;0.50;;;9.30;99.90;;;;;;5064816;28;20513;-80
2022/11/04 07:36:08;;;;;;;0.80;0.80;;;9.30;99.90;;;;;;5067494;28;20468;-80
2022/11/04 07:38:37;;;;;;;1.00;0.60;;;9.30;99.90;;;;;;5060224;28;20490;-80
2022/11/04 07:41:04;;;;;;;0.63;0.50;;;9.30;99.90;;;;;;5072013;28;20466;-80
2022/11/04 07:43:31;;;;;;;0.70;0.60;;;9.30;99.90;;;;;;5067334;28;20467;-80
2022/11/04 07:46:03;;;;;;;1.37;0.50;;;9.40;99.90;;;;;;5069107;28;20470;-80
2022/11/04 07:48:30;;;;;;;0.50;0.50;;;9.40;99.90;;;;;;5068665;28;20451;-80
2022/11/04 07:50:58;;;;;;;0.60;0.50;;;9.30;99.90;;;;;;5071080;28;20447;-81
2022/11/04 07:53:25;;;;;;;0.97;0.50;;;9.20;99.90;;;;;;5067566;28;20517;-81
2022/11/04 07:55:54;;;;;;;0.87;0.60;;;9.20;99.90;;;;;;5067658;28;20549;-81
2022/11/04 07:58:22;;;;;;;0.60;0.40;;;9.20;99.90;;;;;;5067668;28;20893;-81
2022/11/04 08:00:49;;;;;;;0.80;0.50;;;9.20;99.90;;;;;;5065757;28;20448;-81
2022/11/04 08:03:16;;;;;;;0.60;0.50;;;9.20;99.90;;;;;;5067584;28;20499;-81
2022/11/04 08:05:43;;;;;;;0.90;0.40;;;9.20;99.90;;;;;;5064912;28;20475;-81
2022/11/04 08:08:10;;;;;;;0.50;0.50;;;9.10;99.90;;;;;;5063902;28;20452;-80
2022/11/04 08:10:38;;;;;;;1.30;0.70;;;9.20;99.90;;;;;;5065850;28;21288;-79
2022/11/04 08:13:07;;;;;;;0.90;0.60;;;9.20;99.90;;;;;;5076021;28;20459;-79
2022/11/04 08:15:37;;;;;;;2.30;0.40;;;9.20;99.90;;;;;;5079739;28;20454;-79
2022/11/04 08:18:04;;;;;;;0.67;0.50;;;9.10;99.90;;;;;;5081966;28;20489;-79
2022/11/04 08:20:31;;;;;;;0.67;0.40;;;9.10;99.90;;;;;;5076453;28;20542;-79
2022/11/04 08:22:58;;;;;;;1.10;0.53;;;9.20;99.90;;;;;;5077997;28;20548;-79
2022/11/04 08:25:25;;;;;;;0.57;0.40;;;9.20;99.90;;;;;;5082736;28;20512;-78
2022/11/04 08:27:52;;;;;;;1.03;0.30;;;9.10;99.90;;;;;;5072632;28;20511;-79
2022/11/04 08:30:20;;;;;;;2.30;0.40;;;9.10;99.90;;;;;;5079413;28;20484;-79
2022/11/04 08:32:47;;;;;;;0.80;0.60;;;9.20;99.90;;;;;;5074348;28;20515;-79
2022/11/04 08:35:14;;;;;;;0.57;0.40;;;9.20;99.90;;;;;;5069175;28;20455;-78
2022/11/04 08:37:41;;;;;;;1.20;0.60;;;9.20;99.90;;;;;;5067149;28;20549;-79
2022/11/04 08:40:09;;;;;;;1.10;0.50;;;9.20;99.90;;;;;;5068674;28;20993;-79
2022/11/04 08:42:36;;;;;;;0.50;0.40;;;9.10;99.90;;;;;;5067509;28;20544;-81
2022/11/04 08:45:04;;;;;;;0.60;0.40;;;9.10;99.90;;;;;;5066904;28;20460;-81
2022/11/04 08:47:33;;;;;;;1.33;0.40;;;9.00;99.90;;;;;;5067111;28;20512;-81
2022/11/04 08:50:00;;;;;;;1.20;0.80;;;9.00;99.90;;;;;;5061698;28;20459;-81
2022/11/04 08:52:27;;;;;;;1.80;0.87;;;9.00;99.90;;;;;;5068364;28;20512;-81
2022/11/04 08:54:54;;;;;;;2.10;0.60;;;9.00;99.90;;;;;;5057073;28;20850;-81
2022/11/04 08:57:21;;;;;;;1.33;0.80;;;8.90;99.90;;;;;;5060688;28;20831;-81
2022/11/04 08:59:48;;;;;;;1.47;0.77;;;8.90;99.90;;;;;;5054365;28;21270;-78
2022/11/04 09:02:16;;;;;;;4.80;0.70;;;8.80;99.90;;;;;;5060744;28;20499;-80
2022/11/04 09:04:44;;;;;;;0.73;0.60;;;8.80;99.90;;;;;;5066734;28;20470;-80
2022/11/04 09:07:11;;;;;;;1.90;0.50;;;8.80;99.90;;;;;;5063917;28;20467;-80
2022/11/04 09:09:40;;;;;;;0.80;0.50;;;8.80;99.90;;;;;;5067270;28;20463;-80
2022/11/04 09:12:10;;;;;;;1.30;0.47;;;8.70;99.90;;;;;;5068684;28;20540;-80
2022/11/04 09:14:37;;;;;;;0.60;0.50;;;8.70;99.90;;;;;;5067533;28;20439;-80
2022/11/04 09:17:04;;;;;;;0.70;0.40;;;8.70;99.90;;;;;;5066170;28;20486;-80
2022/11/04 09:19:31;;;;;;;1.43;0.50;;;8.70;99.90;;;;;;5070007;28;20569;-81
2022/11/04 09:21:59;;;;;;;0.80;0.50;;;8.60;99.90;;;;;;5064855;28;20535;-81
2022/11/04 09:24:26;;;;;;;0.83;0.50;;;8.60;99.90;;;;;;5071133;28;20508;-80
2022/11/04 09:26:53;;;;;;;1.80;0.37;;;8.60;99.90;;;;;;5064964;28;20513;-80
2022/11/04 09:29:20;;;;;;;0.67;0.60;;;8.60;99.90;;;;;;5064091;28;20470;-81
2022/11/04 09:31:48;;;;;;;1.57;0.60;;;8.60;99.90;;;;;;5069634;28;21035;-80
2022/11/04 09:34:16;;;;;;;0.57;0.40;;;8.60;99.90;;;;;;5079075;28;20558;-80
2022/11/04 09:36:43;;;;;;;0.63;0.50;;;8.60;99.90;;;;;;5074919;28;20545;-81
2022/11/04 09:39:12;;;;;;;0.40;0.30;;;8.50;99.90;;;;;;5070889;28;20493;-80
2022/11/04 09:41:54;;;;;;;0.70;0.40;;;8.50;99.90;;;;;;5070840;28;20905;-80
2022/11/04 09:44:26;;;;;;;0.40;0.30;;;8.50;99.90;;;;;;5064778;28;20471;-80
2022/11/04 09:46:58;;;;;;;0.50;0.50;;;8.40;99.90;;;;;;5074392;28;21235;-80
2022/11/04 09:49:28;;;;;;;0.50;0.40;;;8.40;99.90;;;;;;5063609;28;20451;-81
2022/11/04 09:51:58;;;;;;;1.53;0.57;;;8.40;99.90;;;;;;5065454;28;20922;-81
2022/11/04 09:54:31;;;;;;;0.40;0.30;;;8.40;99.90;;;;;;5068921;28;20503;-80
2022/11/04 09:57:01;;;;;;;0.57;0.50;;;8.40;99.90;;;;;;5072809;28;20447;-80
2022/11/04 09:59:32;;;;;;;0.60;0.47;;;8.30;99.90;;;;;;5064052;28;20512;-81
2022/11/04 10:02:22;;;;;;;0.60;0.30;;;8.30;99.90;;;;;;5065345;28;20497;-80
2022/11/04 10:04:57;;;;;;;0.40;0.30;;;8.30;99.90;;;;;;5062269;28;20455;-80
2022/11/04 10:07:41;;;;;;;0.60;0.30;;;8.20;99.90;;;;;;5076880;28;20454;-80
2022/11/04 10:10:19;;;;;;;1.67;0.40;;;8.20;99.90;;;;;;5071289;28;20443;-80
2022/11/04 10:13:06;;;;;;;0.53;0.40;;;8.20;99.90;;;;;;5067629;28;20533;-80
2022/11/04 10:16:04;;;;;;;0.40;0.30;;;8.20;99.90;;;;;;5077440;28;20553;-80
2022/11/04 10:18:48;;;;;;;0.63;0.40;;;8.20;99.90;;;;;;5074418;28;20547;-80
2022/11/04 10:21:25;;;;;;;0.40;0.23;;;8.10;99.90;;;;;;5076577;28;20918;-80
2022/11/04 10:24:07;;;;;;;0.57;0.30;;;8.10;99.90;;;;;;5075616;28;20603;-81
2022/11/04 10:26:44;;;;;;;0.43;0.30;;;8.10;99.90;;;;;;5078756;28;20519;-80
2022/11/04 10:29:16;;;;;;;0.40;0.23;;;8.20;99.90;;;;;;5068973;28;20478;-81
2022/11/04 10:31:46;;;;;;;0.50;0.40;;;8.10;99.90;;;;;;5069585;28;20550;-78
2022/11/04 10:34:24;;;;;;;0.50;0.30;;;8.10;99.90;;;;;;5077749;28;20470;-81
2022/11/04 10:36:52;;;;;;;0.50;0.30;;;8.20;99.90;;;;;;5071872;28;20534;-81
2022/11/04 10:39:27;;;;;;;0.90;0.40;;;8.10;99.90;;;;;;5068438;28;20514;-81
2022/11/04 10:41:57;;;;;;;0.50;0.20;;;8.00;99.90;;;;;;5073286;28;20464;-80
2022/11/04 10:44:26;;;;;;;0.50;0.30;;;8.00;99.90;;;;;;5069145;28;20452;-80
2022/11/04 10:47:02;;;;;;;0.77;0.30;;;8.00;99.90;;;;;;5066110;28;20518;-81
2022/11/04 10:49:55;;;;;;;2.37;0.40;;;7.90;99.90;;;;;;5070319;28;20501;-80
2022/11/04 10:52:23;;;;;;;0.50;0.40;;;7.90;99.90;;;;;;5059589;28;20509;-81
2022/11/04 10:54:50;;;;;;;3.50;0.50;;;8.00;99.90;;;;;;5070385;28;20521;-81
2022/11/04 10:57:22;;;;;;;0.80;0.30;;;8.10;99.90;;;;;;5082025;28;20488;-81
2022/11/04 10:59:53;;;;;;;0.40;0.37;;;8.10;99.90;;;;;;5077935;28;20482;-80
2022/11/04 11:02:44;;;;;;;0.40;0.23;;;8.10;99.90;;;;;;5079046;28;20507;-80
2022/11/04 11:05:22;;;;;;;0.50;0.40;;;8.00;99.90;;;;;;5074606;28;20468;-80
2022/11/04 11:07:51;;;;;;;0.40;0.30;;;8.00;99.90;;;;;;5078618;28;21007;-81
2022/11/04 11:10:20;;;;;;;0.40;0.30;;;8.00;99.90;;;;;;5080150;28;20503;-80
2022/11/04 11:12:54;;;;;;;0.40;0.30;;;8.00;99.90;;;;;;5071104;28;20907;-80
2022/11/04 11:15:31;;;;;;;1.77;0.40;;;8.00;99.90;;;;;;5068594;28;20437;-80
2022/11/04 11:18:11;;;;;;;0.40;0.23;;;8.00;99.90;;;;;;5078033;28;20442;-80
2022/11/04 11:20:39;;;;;;;0.40;0.33;;;8.00;99.90;;;;;;5079955;28;20459;-81
2022/11/04 11:23:33;;;;;;;0.67;0.30;;;7.90;99.90;;;;;;5083451;28;20451;-81
2022/11/04 11:26:01;;;;;;;0.40;0.30;;;7.90;99.90;;;;;;5077221;28;20458;-80
2022/11/04 11:28:36;;;;;;;0.50;0.40;;;7.90;99.90;;;;;;5066710;28;20475;-81
2022/11/04 11:31:07;;;;;;;1.23;0.40;;;7.90;99.90;;;;;;5074160;28;20887;-81
2022/11/04 11:33:36;;;;;;;0.70;0.40;;;7.80;99.90;;;;;;5067008;28;20961;-81
2022/11/04 11:36:11;;;;;;;0.70;0.40;;;7.70;99.90;;;;;;5064947;28;21052;-81
2022/11/04 11:38:39;;;;;;;0.60;0.30;;;7.70;99.90;;;;;;5065663;28;20824;-80
2022/11/04 11:41:09;;;;;;;0.40;0.40;;;7.60;99.90;;;;;;5073644;28;20455;-81
2022/11/04 11:43:40;;;;;;;0.40;0.30;;;7.60;99.90;;;;;;5074506;28;20511;-81
2022/11/04 11:46:07;;;;;;;0.50;0.40;;;7.60;99.90;;;;;;5066937;28;20535;-81
2022/11/04 11:48:42;;;;;;;4.73;0.70;;;7.50;99.90;;;;;;5073018;28;21206;-81
2022/11/04 11:51:12;;;;;;;0.87;0.40;;;7.50;99.90;;;;;;5070414;28;20917;-81
2022/11/04 11:53:44;;;;;;;0.60;0.40;;;7.50;99.90;;;;;;5071903;28;20580;-81
2022/11/04 11:56:23;;;;;;;0.93;0.30;;;7.40;99.90;;;;;;5068750;28;20952;-81
2022/11/04 11:58:58;;;;;;;0.83;0.43;;;7.30;99.90;;;;;;5069914;28;20658;-80
2022/11/04 12:01:31;;;;;;;0.40;0.20;;;7.20;99.90;;;;;;5070328;28;20457;-80
2022/11/04 12:03:59;;;;;;;2.10;0.30;;;7.20;99.90;;;;;;5070039;28;20464;-80
2022/11/04 12:06:37;;;;;;;0.40;0.20;;;7.10;99.90;;;;;;5065844;28;20926;-80
2022/11/04 12:09:21;;;;;;;0.80;0.30;;;7.00;99.90;;;;;;5064978;28;20674;-80
2022/11/04 12:12:19;;;;;;;1.10;0.40;;;7.00;99.90;;;;;;5070204;28;20518;-80
2022/11/04 12:15:02;;;;;;;0.40;0.20;;;6.90;99.90;;;;;;5085790;28;20465;-79
2022/11/04 12:17:43;;;;;;;0.40;0.20;;;6.80;99.90;;;;;;5068727;28;20478;-79
2022/11/04 12:20:25;;;;;;;1.27;0.30;;;6.70;99.90;;;;;;5071149;28;20490;-79
2022/11/04 12:22:59;;;;;;;0.90;0.23;;;6.60;99.90;;;;;;5071096;28;20607;-80
2022/11/04 12:25:35;;;;;;;0.40;0.20;;;6.60;99.90;;;;;;5075722;28;20477;-79
2022/11/04 12:28:11;;;;;;;2.40;1.00;;;6.50;99.90;;;;;;5075546;28;20973;-77
2022/11/04 12:30:51;;;;;;;0.40;0.20;;;6.40;99.90;;;;;;5065987;28;21022;-77
2022/11/04 12:33:28;;;;;;;2.30;0.30;;;6.30;99.90;;;;;;5081199;28;20484;-77
2022/11/04 12:36:10;;;;;;;0.40;0.30;;;6.30;99.90;;;;;;5086051;28;20516;-77
2022/11/04 12:38:51;;;;;;;0.40;0.20;;;6.30;99.90;;;;;;5075455;28;20801;-76
2022/11/04 12:41:25;;;;;;;1.00;0.40;;;6.30;99.90;;;;;;5068653;28;20494;-76
2022/11/04 12:44:01;;;;;;;1.63;0.40;;;6.30;99.90;;;;;;5068703;28;20461;-77
2022/11/04 12:46:35;;;;;;;0.40;0.30;;;6.20;99.90;;;;;;5073303;28;20882;-76
2022/11/04 12:49:21;;;;;;;0.40;0.30;;;6.20;99.90;;;;;;5070399;28;20440;-76
2022/11/04 12:51:56;;;;;;;0.57;0.20;;;6.20;99.90;;;;;;5067407;28;20464;-76
2022/11/04 12:54:45;;;;;;;0.40;0.30;;;6.20;99.90;;;;;;5071399;28;20444;-77
2022/11/04 12:57:18;;;;;;;0.70;0.30;;;6.20;99.90;;;;;;5070195;28;20464;-77
2022/11/04 13:00:05;;;;;;;1.63;0.30;;;6.20;99.90;;;;;;5067414;28;20541;-77
2022/11/04 13:02:39;;;;;;;0.60;0.60;;;6.10;99.90;;;;;;5070857;28;20473;-77
2022/11/04 13:05:18;;;;;;;0.70;0.30;;;6.10;99.90;;;;;;5063614;28;20524;-77
2022/11/04 13:07:54;;;;;;;0.47;0.37;;;6.00;99.90;;;;;;5066344;28;20524;-77
2022/11/04 13:10:27;;;;;;;0.67;0.30;;;5.90;99.90;;;;;;5067896;28;20455;-77
2022/11/04 13:12:59;;;;;;;0.40;0.30;;;5.90;99.90;;;;;;5070939;28;20459;-77
2022/11/04 13:15:30;;;;;;;0.40;0.23;;;5.80;99.90;;;;;;5071688;28;20463;-77
2022/11/04 13:18:03;;;;;;;0.53;0.50;;;5.70;99.90;;;;;;5067713;28;20532;-77
2022/11/04 13:20:35;;;;;;;0.40;0.20;;;5.60;99.90;;;;;;5075883;28;20533;-77
2022/11/04 13:23:07;;;;;;;0.40;0.20;;;5.30;99.90;;;;;;5068257;28;20918;-77
2022/11/04 13:25:40;;;;;;;0.40;0.20;;;5.00;99.90;;;;;;5072290;28;20487;-77
2022/11/04 13:28:10;;;;;;;0.30;0.20;;;4.70;99.90;;;;;;5070016;28;20506;-78
2022/11/04 13:30:44;;;;;;;0.30;0.20;;;4.60;99.90;;;;;;5071323;28;20488;-77
2022/11/04 13:33:24;;;;;;;0.30;0.20;;;4.60;99.90;;;;;;5073682;28;21041;-77
2022/11/04 13:35:58;;;;;;;0.30;0.20;;;4.40;99.90;;;;;;5074361;28;20490;-79
2022/11/04 13:38:30;;;;;;;0.40;0.20;;;4.40;99.90;;;;;;5076464;28;20846;-79
2022/11/04 13:41:16;;;;;;;0.30;0.20;;;4.40;99.90;;;;;;5075386;28;20556;-79
2022/11/04 13:43:49;;;;;;;0.30;0.20;;;4.40;99.90;;;;;;5074020;28;20572;-79